createdAt,value
2023-10-14T00:02:43.182Z,16.02
2023-10-14T00:06:01.739Z,15.95
2023-10-14T00:09:15.612Z,15.90
2023-10-14T00:12:25.912Z,15.85
2023-10-14T00:15:40.255Z,15.81
2023-10-14T00:18:50.179Z,15.75
2023-10-14T00:22:02.109Z,15.70
2023-10-14T00:25:28.669Z,15.64
2023-10-14T00:28:37.908Z,15.58
2023-10-14T00:31:55.826Z,15.56
2023-10-14T00:35:08.775Z,15.50
2023-10-14T00:38:25.967Z,15.47
2023-10-14T00:41:40.263Z,15.46
2023-10-14T00:44:49.715Z,15.46
2023-10-14T00:48:03.857Z,15.43
2023-10-14T00:51:16.076Z,15.41
2023-10-14T00:54:52.464Z,15.39
2023-10-14T00:58:30.582Z,15.39
2023-10-14T01:01:56.796Z,15.40
2023-10-14T01:05:14.666Z,15.39
2023-10-14T01:08:23.474Z,15.35
2023-10-14T01:11:36.584Z,15.32
2023-10-14T01:15:22.196Z,15.26
2023-10-14T01:18:40.590Z,15.21
2023-10-14T01:22:04.668Z,15.17
2023-10-14T01:25:48.377Z,15.11
2023-10-14T01:29:02.019Z,15.04
2023-10-14T01:32:54.669Z,15.02
2023-10-14T01:36:07.790Z,15.00
2023-10-14T01:39:53.512Z,15.03
2023-10-14T01:43:08.062Z,15.04
2023-10-14T01:46:32.704Z,15.04
2023-10-14T01:49:56.487Z,15.03
2023-10-14T01:53:20.502Z,15.01
2023-10-14T01:56:35.915Z,15.00
2023-10-14T01:59:50.775Z,15.01
2023-10-14T02:03:09.287Z,15.02
2023-10-14T02:06:20.231Z,15.05
2023-10-14T02:09:30.905Z,15.08
2023-10-14T02:12:39.651Z,15.10
2023-10-14T02:16:10.213Z,15.08
2023-10-14T02:19:23.321Z,15.07
2023-10-14T02:22:39.334Z,15.13
2023-10-14T02:25:50.402Z,15.17
2023-10-14T02:29:01.827Z,15.18
2023-10-14T02:32:26.946Z,15.14
2023-10-14T02:36:03.171Z,15.10
2023-10-14T02:39:20.333Z,15.05
2023-10-14T02:42:30.780Z,15.00
2023-10-14T02:49:43.504Z,14.90
2023-10-14T02:53:14.110Z,14.87
2023-10-14T02:56:49.999Z,14.80
2023-10-14T03:00:01.648Z,14.71
2023-10-14T03:03:19.897Z,14.67
2023-10-14T03:06:59.135Z,14.65
2023-10-14T03:10:16.821Z,14.65
2023-10-14T03:13:32.733Z,14.67
2023-10-14T03:17:02.151Z,14.67
2023-10-14T03:20:34.657Z,14.69
2023-10-14T03:23:51.822Z,14.69
2023-10-14T03:27:06.068Z,14.71
2023-10-14T03:30:16.804Z,14.76
2023-10-14T03:33:27.654Z,14.79
2023-10-14T03:36:54.312Z,14.83
2023-10-14T03:40:28.424Z,14.86
2023-10-14T03:44:01.727Z,14.90
2023-10-14T03:47:23.255Z,14.89
2023-10-14T03:50:31.264Z,14.87
2023-10-14T03:53:54.894Z,14.85
2023-10-14T03:57:08.370Z,14.82
2023-10-14T04:00:41.861Z,14.80
2023-10-14T04:04:00.270Z,14.77
2023-10-14T04:07:32.237Z,14.73
2023-10-14T04:10:56.795Z,14.69
2023-10-14T04:14:20.771Z,14.67
2023-10-14T04:17:53.547Z,14.68
2023-10-14T04:21:37.155Z,14.66
2023-10-14T04:24:51.603Z,14.61
2023-10-14T04:28:28.428Z,14.57
2023-10-14T04:31:59.607Z,14.54
2023-10-14T04:35:26.424Z,14.51
2023-10-14T04:38:47.271Z,14.50
2023-10-14T04:42:18.247Z,14.46
2023-10-14T04:45:48.821Z,14.49
2023-10-14T04:49:09.652Z,14.51
2023-10-14T04:52:22.627Z,14.56
2023-10-14T04:55:34.656Z,14.64
2023-10-14T04:58:47.766Z,14.73
2023-10-14T05:05:37.373Z,14.86
2023-10-14T05:08:47.200Z,14.91
2023-10-14T05:12:18.006Z,14.95
2023-10-14T05:15:33.990Z,15.00
2023-10-14T05:19:02.841Z,15.04
2023-10-14T05:22:27.551Z,15.12
2023-10-14T05:25:44.091Z,15.26
2023-10-14T05:29:13.270Z,15.46
2023-10-14T05:32:39.150Z,15.55
2023-10-14T05:35:57.240Z,15.71
2023-10-14T05:39:13.444Z,15.79
2023-10-14T05:42:25.949Z,15.85
2023-10-14T05:45:43.308Z,15.90
2023-10-14T05:48:57.671Z,15.96
2023-10-14T05:52:09.074Z,16.04
2023-10-14T05:55:21.887Z,16.16
2023-10-14T05:58:37.088Z,16.27
2023-10-14T06:01:53.267Z,16.40
2023-10-14T06:05:07.590Z,16.54
2023-10-14T06:08:19.165Z,16.68
2023-10-14T06:11:29.961Z,16.78
2023-10-14T06:14:39.938Z,16.86
2023-10-14T06:17:49.712Z,16.93
2023-10-14T06:21:01.451Z,16.98
2023-10-14T06:24:15.175Z,17.04
2023-10-14T06:27:28.727Z,17.15
2023-10-14T06:30:40.811Z,17.22
2023-10-14T06:33:58.524Z,17.29
2023-10-14T06:37:10.930Z,17.32
2023-10-14T06:40:18.164Z,17.37
2023-10-14T06:43:29.073Z,17.45
2023-10-14T06:46:40.383Z,17.52
2023-10-14T06:49:57.225Z,17.58
2023-10-14T06:53:36.812Z,17.62
2023-10-14T06:56:55.322Z,17.70
2023-10-14T07:00:29.735Z,17.77
2023-10-14T07:03:47.369Z,17.85
2023-10-14T07:07:05.465Z,17.91
2023-10-14T07:10:31.362Z,17.97
2023-10-14T07:13:50.110Z,17.99
2023-10-14T07:17:07.481Z,18.05
2023-10-14T07:20:19.028Z,18.08
2023-10-14T07:23:28.513Z,18.12
2023-10-14T07:26:49.094Z,18.18
2023-10-14T07:29:59.986Z,18.21
2023-10-14T07:33:07.839Z,18.28
2023-10-14T07:36:22.129Z,18.33
2023-10-14T07:39:41.381Z,18.39
2023-10-14T07:43:03.093Z,18.45
2023-10-14T07:46:19.126Z,18.50
2023-10-14T07:49:29.632Z,18.58
2023-10-14T07:52:44.832Z,18.60
2023-10-14T07:55:58.879Z,18.65
2023-10-14T07:59:06.129Z,18.73
2023-10-14T08:02:28.342Z,18.78
2023-10-14T08:05:38.989Z,18.83
2023-10-14T08:08:52.390Z,18.90
2023-10-14T08:12:03.571Z,18.99
2023-10-14T08:15:22.215Z,19.07
2023-10-14T08:18:51.066Z,19.15
2023-10-14T08:22:01.699Z,19.23
2023-10-14T08:25:09.112Z,19.33
2023-10-14T08:28:31.870Z,19.46
2023-10-14T08:31:50.506Z,19.58
2023-10-14T08:35:15.752Z,19.76
2023-10-14T08:38:37.482Z,20.01
2023-10-14T08:42:00.395Z,20.25
2023-10-14T08:45:14.923Z,20.36
2023-10-14T08:48:27.467Z,20.42
2023-10-14T08:51:54.664Z,20.51
2023-10-14T08:55:09.297Z,20.63
2023-10-14T08:58:32.659Z,20.78
2023-10-14T09:01:38.229Z,21.01
2023-10-14T09:04:57.121Z,21.20
2023-10-14T09:08:08.530Z,21.35
2023-10-14T09:11:49.976Z,21.49
2023-10-14T09:15:07.098Z,21.38
2023-10-14T09:18:23.770Z,21.36
2023-10-14T09:21:48.673Z,21.42
2023-10-14T09:24:59.239Z,21.58
2023-10-14T09:28:25.336Z,21.75
2023-10-14T09:31:51.145Z,21.84
2023-10-14T09:34:58.314Z,21.96
2023-10-14T09:38:08.763Z,22.18
2023-10-14T09:41:47.877Z,22.52
2023-10-14T09:45:11.404Z,22.80
2023-10-14T09:48:33.146Z,22.75
2023-10-14T09:51:53.481Z,22.62
2023-10-14T09:55:14.930Z,22.29
2023-10-14T09:58:32.835Z,21.94
2023-10-14T10:01:52.323Z,21.67
2023-10-14T10:05:07.028Z,21.45
2023-10-14T10:09:02.120Z,21.26
2023-10-14T10:12:16.193Z,21.16
2023-10-14T10:15:24.694Z,21.10
2023-10-14T10:19:07.125Z,21.07
2023-10-14T10:22:42.925Z,21.11
2023-10-14T10:25:53.455Z,21.19
2023-10-14T10:29:30.569Z,21.37
2023-10-14T10:32:46.585Z,21.50
2023-10-14T10:36:00.376Z,21.65
2023-10-14T10:39:22.084Z,21.77
2023-10-14T10:42:32.561Z,21.86
2023-10-14T10:45:45.276Z,21.85
2023-10-14T10:48:53.504Z,21.88
2023-10-14T10:52:18.124Z,21.99
2023-10-14T10:55:25.960Z,22.06
2023-10-14T10:58:41.325Z,22.04
2023-10-14T11:02:00.493Z,21.99
2023-10-14T11:05:09.243Z,22.13
2023-10-14T11:08:33.856Z,22.23
2023-10-14T11:11:41.520Z,22.29
2023-10-14T11:14:52.644Z,22.29
2023-10-14T11:18:23.552Z,22.27
2023-10-14T11:21:42.244Z,22.14
2023-10-14T11:24:47.244Z,21.90
2023-10-14T11:27:57.808Z,21.75
2023-10-14T11:31:09.508Z,21.64
2023-10-14T11:34:26.623Z,21.61
2023-10-14T11:37:51.116Z,21.67
2023-10-14T11:41:19.471Z,21.87
2023-10-14T11:44:27.994Z,21.97
2023-10-14T11:47:53.971Z,22.02
2023-10-14T11:51:25.332Z,22.70
2023-10-14T11:54:33.887Z,24.26
2023-10-14T11:58:01.694Z,24.41
2023-10-14T12:01:30.248Z,23.56
2023-10-14T12:04:51.965Z,23.11
2023-10-14T12:08:02.123Z,22.88
2023-10-14T12:11:18.007Z,22.75
2023-10-14T12:14:37.256Z,23.57
2023-10-14T12:18:00.620Z,23.40
2023-10-14T12:21:30.152Z,23.11
2023-10-14T12:24:41.329Z,24.41
2023-10-14T12:28:13.876Z,25.58
2023-10-14T12:31:29.056Z,24.67
2023-10-14T12:34:42.270Z,23.87
2023-10-14T12:37:46.177Z,23.36
2023-10-14T12:41:06.722Z,23.19
2023-10-14T12:44:22.071Z,22.75
2023-10-14T12:47:38.158Z,22.48
2023-10-14T12:50:50.689Z,22.39
2023-10-14T12:54:01.021Z,22.71
2023-10-14T12:57:40.040Z,23.89
2023-10-14T13:01:03.895Z,24.24
2023-10-14T13:04:22.969Z,23.63
2023-10-14T13:07:30.732Z,22.82
2023-10-14T13:10:54.383Z,22.23
2023-10-14T13:14:04.714Z,21.78
2023-10-14T13:17:32.519Z,21.44
2023-10-14T13:20:59.717Z,21.12
2023-10-14T13:24:15.185Z,20.95
2023-10-14T13:27:27.576Z,20.85
2023-10-14T13:30:48.944Z,20.75
2023-10-14T13:34:09.894Z,20.72
2023-10-14T13:37:20.148Z,20.74
2023-10-14T13:40:43.602Z,20.84
2023-10-14T13:43:53.067Z,21.07
2023-10-14T13:47:10.660Z,21.60
2023-10-14T13:50:26.675Z,21.70
2023-10-14T13:53:59.484Z,21.45
2023-10-14T13:57:05.992Z,21.20
2023-10-14T14:00:39.704Z,20.92
2023-10-14T14:04:00.012Z,20.70
2023-10-14T14:07:14.468Z,20.54
2023-10-14T14:10:54.964Z,20.42
2023-10-14T14:14:09.580Z,20.30
2023-10-14T14:17:22.162Z,19.92
2023-10-14T14:20:37.041Z,19.37
2023-10-14T14:24:05.913Z,18.92
2023-10-14T14:27:21.027Z,18.48
2023-10-14T14:30:39.074Z,18.13
2023-10-14T14:33:57.151Z,17.95
2023-10-14T14:37:18.468Z,17.79
2023-10-14T14:40:42.062Z,17.65
2023-10-14T14:44:01.871Z,17.49
2023-10-14T14:47:21.668Z,17.32
2023-10-14T14:50:40.229Z,17.19
2023-10-14T14:53:50.960Z,17.02
2023-10-14T14:57:07.990Z,16.88
2023-10-14T15:00:53.057Z,16.66
2023-10-14T15:03:58.900Z,16.48
2023-10-14T15:07:17.054Z,16.26
2023-10-14T15:10:34.942Z,16.10
2023-10-14T15:13:42.293Z,15.94
2023-10-14T15:17:02.317Z,15.75
2023-10-14T15:20:13.692Z,15.64
2023-10-14T15:23:33.505Z,15.51
2023-10-14T15:26:49.485Z,15.40
2023-10-14T15:30:01.421Z,15.32
2023-10-14T15:33:17.217Z,15.22
2023-10-14T15:36:35.442Z,15.17
2023-10-14T15:39:44.856Z,15.13
2023-10-14T15:42:51.843Z,15.13
2023-10-14T15:46:03.304Z,15.12
2023-10-14T15:49:10.591Z,15.11
2023-10-14T15:52:23.139Z,15.01
2023-10-14T15:55:44.703Z,14.92
2023-10-14T15:58:55.895Z,14.71
2023-10-14T16:02:03.637Z,14.40
2023-10-14T16:05:13.277Z,14.11
2023-10-14T16:08:29.149Z,13.90
2023-10-14T16:11:40.548Z,13.75
2023-10-14T16:14:58.303Z,13.62
2023-10-14T16:18:12.992Z,13.50
2023-10-14T16:21:27.793Z,13.47
2023-10-14T16:24:44.415Z,13.46
2023-10-14T16:27:57.345Z,13.43
2023-10-14T16:31:18.351Z,13.38
2023-10-14T16:34:42.886Z,13.34
2023-10-14T16:38:03.416Z,13.31
2023-10-14T16:41:22.508Z,13.27
2023-10-14T16:48:22.080Z,13.18
2023-10-14T16:51:50.036Z,13.09
2023-10-14T16:55:18.885Z,13.01
2023-10-14T16:58:30.656Z,12.97
2023-10-14T17:01:44.436Z,12.93
2023-10-14T17:04:54.066Z,12.91
2023-10-14T17:08:09.700Z,12.90
2023-10-14T17:11:37.736Z,12.89
2023-10-14T17:14:58.269Z,12.86
2023-10-14T17:18:32.155Z,12.85
2023-10-14T17:22:24.564Z,12.86
2023-10-14T17:25:35.452Z,12.88
2023-10-14T17:28:53.424Z,12.90
2023-10-14T17:32:02.144Z,12.94
2023-10-14T17:35:18.475Z,12.94
2023-10-14T17:38:31.447Z,12.94
2023-10-14T17:41:48.929Z,12.94
2023-10-14T17:45:04.021Z,12.91
2023-10-14T17:48:21.919Z,12.81
2023-10-14T17:51:46.594Z,12.79
2023-10-14T17:55:11.385Z,12.79
2023-10-14T17:58:29.597Z,12.77
2023-10-14T18:01:54.472Z,12.74
2023-10-14T18:05:06.090Z,12.73
2023-10-14T18:08:18.211Z,12.74
2023-10-14T18:11:30.049Z,12.77
2023-10-14T18:14:41.190Z,12.76
2023-10-14T18:17:50.618Z,12.74
2023-10-14T18:21:08.903Z,12.72
2023-10-14T18:24:20.721Z,12.67
2023-10-14T18:27:38.162Z,12.64
2023-10-14T18:30:49.352Z,12.65
2023-10-14T18:34:00.967Z,12.63
2023-10-14T18:37:23.696Z,12.65
2023-10-14T18:40:40.679Z,12.65
2023-10-14T18:44:02.376Z,12.65
2023-10-14T18:47:16.628Z,12.63
2023-10-14T18:50:37.618Z,12.64
2023-10-14T18:53:54.252Z,12.64
2023-10-14T18:57:21.345Z,12.64
2023-10-14T19:00:35.345Z,12.61
2023-10-14T19:04:03.795Z,12.61
2023-10-14T19:07:19.547Z,12.61
2023-10-14T19:11:02.172Z,12.60
2023-10-14T19:14:15.774Z,12.55
2023-10-14T19:17:30.477Z,12.52
2023-10-14T19:20:44.668Z,12.47
2023-10-14T19:24:09.917Z,12.46
2023-10-14T19:27:15.705Z,12.45
2023-10-14T19:30:24.876Z,12.42
2023-10-14T19:33:48.722Z,12.41
2023-10-14T19:37:04.926Z,12.40
2023-10-14T19:40:32.730Z,12.41
2023-10-14T19:43:45.407Z,12.41
2023-10-14T19:46:52.443Z,12.40
2023-10-14T19:50:11.277Z,12.42
2023-10-14T19:53:29.281Z,12.44
2023-10-14T19:56:46.456Z,12.42
2023-10-14T20:00:07.088Z,12.39
2023-10-14T20:03:27.820Z,12.37
2023-10-14T20:06:45.042Z,12.37
2023-10-14T20:10:03.900Z,12.40
2023-10-14T20:13:17.334Z,12.41
2023-10-14T20:16:31.478Z,12.41
2023-10-14T20:19:49.786Z,12.44
2023-10-14T20:23:00.566Z,12.39
2023-10-14T20:26:14.097Z,12.34
2023-10-14T20:33:02.447Z,12.31
2023-10-14T20:36:27.552Z,12.32
2023-10-14T20:39:56.619Z,12.32
2023-10-14T20:43:21.275Z,12.27
2023-10-14T20:46:38.507Z,12.24
2023-10-14T20:50:08.924Z,12.21
2023-10-14T20:53:41.287Z,12.17
2023-10-14T20:56:58.873Z,12.14
2023-10-14T21:00:20.688Z,12.11
2023-10-14T21:03:40.061Z,12.10
2023-10-14T21:06:59.781Z,12.12
2023-10-14T21:10:30.139Z,12.11
2023-10-14T21:13:43.408Z,12.08
2023-10-14T21:16:53.631Z,12.04
2023-10-14T21:20:12.116Z,12.01
2023-10-14T21:23:31.144Z,11.96
2023-10-14T21:26:44.247Z,11.91
2023-10-14T21:29:53.730Z,11.86
2023-10-14T21:33:07.301Z,11.80
2023-10-14T21:36:34.773Z,11.71
2023-10-14T21:39:45.225Z,11.63
2023-10-14T21:42:54.211Z,11.55
2023-10-14T21:49:37.604Z,11.48
2023-10-14T21:53:04.310Z,11.43
2023-10-14T21:56:27.758Z,11.39
2023-10-14T21:59:43.584Z,11.34
2023-10-14T22:02:55.205Z,11.32
2023-10-14T22:06:10.873Z,11.30
2023-10-14T22:09:37.386Z,11.24
2023-10-14T22:12:58.167Z,11.21
2023-10-14T22:16:09.203Z,11.18
2023-10-14T22:19:22.597Z,11.11
2023-10-14T22:22:28.728Z,11.06
2023-10-14T22:25:56.535Z,11.04
2023-10-14T22:29:05.564Z,11.01
2023-10-14T22:32:25.836Z,10.98
2023-10-14T22:35:36.303Z,10.93
2023-10-14T22:38:57.775Z,10.85
2023-10-14T22:42:05.398Z,10.78
2023-10-14T22:45:12.070Z,10.68
2023-10-14T22:48:35.146Z,10.59
2023-10-14T22:51:43.692Z,10.52
2023-10-14T22:54:52.023Z,10.43
2023-10-14T22:58:21.712Z,10.37
2023-10-14T23:01:39.027Z,10.33
2023-10-14T23:04:52.613Z,10.31
2023-10-14T23:08:04.893Z,10.35
2023-10-14T23:11:19.672Z,10.40
2023-10-14T23:14:24.991Z,10.49
2023-10-14T23:17:58.546Z,10.55
2023-10-14T23:21:12.081Z,10.59
2023-10-14T23:24:22.383Z,10.62
2023-10-14T23:27:31.141Z,10.58
2023-10-14T23:30:59.396Z,10.55
2023-10-14T23:34:16.896Z,10.45
2023-10-14T23:37:34.571Z,10.32
2023-10-14T23:40:48.978Z,10.18
2023-10-14T23:43:55.439Z,10.09
2023-10-14T23:47:09.372Z,10.00
2023-10-14T23:50:31.606Z,9.97
2023-10-14T23:53:46.129Z,9.95
2023-10-14T23:57:03.899Z,9.99
